createdAt,value
2024-04-03T00:00:39.351Z,1
2024-04-03T00:02:23.050Z,1
2024-04-03T00:04:06.754Z,1
2024-04-03T00:05:50.451Z,1
2024-04-03T00:07:34.174Z,1
2024-04-03T00:09:17.881Z,0
2024-04-03T00:11:01.567Z,0
2024-04-03T00:12:45.282Z,0
2024-04-03T00:14:28.990Z,1
2024-04-03T00:16:12.701Z,1
2024-04-03T00:17:56.409Z,0
2024-04-03T00:19:40.102Z,1
2024-04-03T00:21:23.803Z,1
2024-04-03T00:23:07.506Z,0
2024-04-03T00:24:51.198Z,0
2024-04-03T00:26:34.899Z,1
2024-04-03T00:28:18.602Z,1
2024-04-03T00:30:02.283Z,1
2024-04-03T00:31:46.009Z,0
2024-04-03T00:33:29.711Z,1
2024-04-03T00:35:13.405Z,1
2024-04-03T00:36:57.088Z,1
2024-04-03T00:38:40.899Z,0
2024-04-03T00:40:24.499Z,1
2024-04-03T00:42:08.257Z,1
2024-04-03T00:43:51.890Z,1
2024-04-03T00:45:35.599Z,0
2024-04-03T00:47:19.315Z,0
2024-04-03T00:49:03.026Z,0
2024-04-03T00:50:46.703Z,0
2024-04-03T00:52:30.409Z,1
2024-04-03T00:54:14.116Z,1
2024-04-03T00:55:57.821Z,0
2024-04-03T00:57:41.512Z,0
2024-04-03T00:59:25.201Z,1
2024-04-03T01:01:08.915Z,1
2024-04-03T01:02:52.605Z,1
2024-04-03T01:04:36.298Z,1
2024-04-03T01:06:20.014Z,0
2024-04-03T01:08:03.728Z,0
2024-04-03T01:09:47.433Z,1
2024-04-03T01:11:31.115Z,0
2024-04-03T01:13:14.809Z,0
2024-04-03T01:14:58.522Z,0
2024-04-03T01:16:42.238Z,0
2024-04-03T01:18:25.932Z,1
2024-04-03T01:20:09.636Z,0
2024-04-03T01:21:53.327Z,1
2024-04-03T01:23:37.036Z,0
2024-04-03T01:25:20.750Z,0
2024-04-03T01:27:04.438Z,1
2024-04-03T01:28:48.162Z,0
2024-04-03T01:30:31.848Z,1
2024-04-03T01:32:15.564Z,1
2024-04-03T01:33:59.266Z,0
2024-04-03T01:35:42.967Z,0
2024-04-03T01:37:26.662Z,0
2024-04-03T01:39:10.365Z,0
2024-04-03T01:40:54.044Z,1
2024-04-03T01:42:37.775Z,0
2024-04-03T01:44:21.468Z,1
2024-04-03T01:46:05.173Z,1
2024-04-03T01:47:48.918Z,0
2024-04-03T01:49:32.555Z,1
2024-04-03T01:51:16.267Z,0
2024-04-03T01:52:59.968Z,0
2024-04-03T01:54:43.668Z,3
2024-04-03T01:56:27.376Z,0
2024-04-03T01:58:11.085Z,0
2024-04-03T01:59:54.773Z,1
2024-04-03T02:01:38.464Z,0
2024-04-03T02:03:22.167Z,0
2024-04-03T02:05:05.872Z,0
2024-04-03T02:06:49.566Z,0
2024-04-03T02:08:33.256Z,1
2024-04-03T02:10:16.972Z,1
2024-04-03T02:12:00.683Z,0
2024-04-03T02:13:44.383Z,1
2024-04-03T02:15:28.052Z,0
2024-04-03T02:17:11.780Z,1
2024-04-03T02:18:55.489Z,0
2024-04-03T02:20:39.197Z,1
2024-04-03T02:22:22.876Z,1
2024-04-03T02:24:06.581Z,1
2024-04-03T02:25:50.283Z,0
2024-04-03T02:27:34.005Z,0
2024-04-03T02:29:17.676Z,1
2024-04-03T02:31:01.380Z,0
2024-04-03T02:32:45.094Z,0
2024-04-03T02:34:28.792Z,0
2024-04-03T02:36:12.474Z,0
2024-04-03T02:37:56.191Z,0
2024-04-03T02:39:39.925Z,0
2024-04-03T02:41:23.646Z,0
2024-04-03T02:43:07.337Z,0
2024-04-03T02:44:51.042Z,1
2024-04-03T02:46:34.750Z,0
2024-04-03T02:48:18.443Z,0
2024-04-03T02:50:02.139Z,0
2024-04-03T02:51:45.880Z,1
2024-04-03T02:53:29.558Z,0
2024-04-03T02:55:13.268Z,0
2024-04-03T02:56:56.962Z,0
2024-04-03T02:58:40.650Z,0
2024-04-03T03:00:24.352Z,0
2024-04-03T03:02:08.081Z,0
2024-04-03T03:03:51.774Z,0
2024-04-03T03:05:35.479Z,0
2024-04-03T03:07:19.135Z,0
2024-04-03T03:09:02.826Z,0
2024-04-03T03:10:46.518Z,0
2024-04-03T03:12:30.207Z,0
2024-04-03T03:14:13.937Z,0
2024-04-03T03:15:57.625Z,0
2024-04-03T03:17:41.315Z,0
2024-04-03T03:19:25.022Z,0
2024-04-03T03:21:08.733Z,0
2024-04-03T03:22:52.432Z,0
2024-04-03T03:24:36.140Z,0
2024-04-03T03:26:19.837Z,0
2024-04-03T03:28:03.534Z,0
2024-04-03T03:29:47.258Z,0
2024-04-03T03:31:30.959Z,0
2024-04-03T03:33:14.649Z,1
2024-04-03T03:34:58.352Z,0
2024-04-03T03:36:42.064Z,0
2024-04-03T03:38:25.756Z,0
2024-04-03T03:40:09.463Z,0
2024-04-03T03:41:53.198Z,0
2024-04-03T03:43:36.884Z,0
2024-04-03T03:45:20.615Z,0
2024-04-03T03:47:04.281Z,0
2024-04-03T03:48:47.975Z,1
2024-04-03T03:50:31.672Z,0
2024-04-03T03:52:15.380Z,0
2024-04-03T03:53:59.086Z,0
2024-04-03T03:55:42.782Z,1
2024-04-03T03:57:26.475Z,0
2024-04-03T03:59:10.182Z,0
2024-04-03T04:00:53.890Z,1
2024-04-03T04:02:37.578Z,0
2024-04-03T04:06:04.974Z,0
2024-04-03T04:07:48.691Z,0
2024-04-03T04:09:32.377Z,0
2024-04-03T04:11:16.079Z,0
2024-04-03T04:12:59.791Z,0
2024-04-03T04:14:43.489Z,1
2024-04-03T04:16:27.171Z,0
2024-04-03T04:18:10.880Z,0
2024-04-03T04:19:54.592Z,0
2024-04-03T04:21:38.302Z,0
2024-04-03T04:23:22.001Z,0
2024-04-03T04:25:05.718Z,0
2024-04-03T04:26:49.399Z,0
2024-04-03T04:28:33.101Z,0
2024-04-03T04:30:16.784Z,0
2024-04-03T04:32:00.483Z,0
2024-04-03T04:33:44.188Z,0
2024-04-03T04:35:27.907Z,0
2024-04-03T04:37:11.599Z,0
2024-04-03T04:38:55.295Z,0
2024-04-03T04:40:39.015Z,0
2024-04-03T04:42:22.715Z,0
2024-04-03T04:44:06.397Z,0
2024-04-03T04:45:50.081Z,0
2024-04-03T04:47:33.808Z,1
2024-04-03T04:49:17.504Z,1
2024-04-03T04:51:01.212Z,2
2024-04-03T04:52:44.904Z,1
2024-04-03T04:54:28.605Z,1
2024-04-03T04:56:12.316Z,1
2024-04-03T04:57:56.011Z,1
2024-04-03T04:59:39.731Z,2
2024-04-03T05:01:23.397Z,3
2024-04-03T05:03:07.115Z,3
2024-04-03T05:04:50.808Z,4
2024-04-03T05:06:34.518Z,5
2024-04-03T05:08:18.224Z,5
2024-04-03T05:10:01.927Z,7
2024-04-03T05:11:45.618Z,8
2024-04-03T05:13:29.319Z,9
2024-04-03T05:15:13.020Z,10
2024-04-03T05:16:56.723Z,13
2024-04-03T05:18:40.440Z,15
2024-04-03T05:20:24.139Z,17
2024-04-03T05:22:07.853Z,19
2024-04-03T05:23:51.553Z,23
2024-04-03T05:25:35.246Z,23
2024-04-03T05:27:18.963Z,25
2024-04-03T05:29:02.637Z,26
2024-04-03T05:30:46.352Z,27
2024-04-03T05:32:30.085Z,24
2024-04-03T05:34:13.760Z,21
2024-04-03T05:35:57.474Z,16
2024-04-03T05:37:41.162Z,13
2024-04-03T05:39:24.871Z,12
2024-04-03T05:41:08.577Z,10
2024-04-03T05:42:52.277Z,9
2024-04-03T05:44:35.972Z,9
2024-04-03T05:46:19.662Z,9
2024-04-03T05:48:03.385Z,10
2024-04-03T05:49:47.089Z,12
2024-04-03T05:51:30.787Z,13
2024-04-03T05:53:14.481Z,16
2024-04-03T05:54:58.186Z,18
2024-04-03T05:56:41.899Z,20
2024-04-03T05:58:25.582Z,23
2024-04-03T06:00:09.290Z,26
2024-04-03T06:01:52.993Z,30
2024-04-03T06:03:36.708Z,33
2024-04-03T06:05:20.400Z,38
2024-04-03T06:07:04.108Z,42
2024-04-03T06:08:47.815Z,48
2024-04-03T06:10:31.507Z,51
2024-04-03T06:12:15.219Z,775
2024-04-03T06:13:58.916Z,776
2024-04-03T06:15:42.605Z,775
2024-04-03T06:17:26.334Z,776
2024-04-03T06:19:10.034Z,775
2024-04-03T06:20:53.736Z,775
2024-04-03T06:22:37.412Z,775
2024-04-03T06:24:21.124Z,776
2024-04-03T06:26:04.832Z,775
2024-04-03T06:27:48.525Z,776
2024-04-03T06:29:32.224Z,776
2024-04-03T06:31:15.934Z,776
2024-04-03T06:32:59.635Z,776
2024-04-03T06:34:43.320Z,776
2024-04-03T06:36:27.025Z,776
2024-04-03T06:38:10.732Z,691
2024-04-03T06:39:54.473Z,641
2024-04-03T06:41:38.122Z,630
2024-04-03T06:43:21.833Z,699
2024-04-03T06:45:05.549Z,776
2024-04-03T06:46:49.254Z,777
2024-04-03T06:48:32.936Z,776
2024-04-03T06:50:16.634Z,776
2024-04-03T06:52:00.345Z,776
2024-04-03T06:53:44.086Z,776
2024-04-03T06:55:27.762Z,774
2024-04-03T06:57:11.462Z,776
2024-04-03T06:58:55.159Z,776
2024-04-03T07:00:38.869Z,776
2024-04-03T07:02:22.562Z,775
2024-04-03T07:04:06.335Z,776
2024-04-03T07:05:49.950Z,776
2024-04-03T07:07:33.652Z,776
2024-04-03T07:09:17.368Z,776
2024-04-03T07:11:01.072Z,776
2024-04-03T07:12:44.761Z,776
2024-04-03T07:14:28.477Z,776
2024-04-03T07:16:12.167Z,776
2024-04-03T07:17:55.864Z,776
2024-04-03T07:19:39.558Z,777
2024-04-03T07:21:23.273Z,776
2024-04-03T07:23:06.986Z,776
2024-04-03T07:24:50.663Z,776
2024-04-03T07:26:34.403Z,776
2024-04-03T07:28:18.093Z,776
2024-04-03T07:30:01.779Z,776
2024-04-03T07:31:45.492Z,773
2024-04-03T07:33:29.200Z,776
2024-04-03T07:35:12.906Z,776
2024-04-03T07:36:56.652Z,776
2024-04-03T07:38:40.299Z,776
2024-04-03T07:40:23.998Z,776
2024-04-03T07:42:07.682Z,776
2024-04-03T07:43:51.379Z,776
2024-04-03T07:45:35.105Z,776
2024-04-03T07:47:18.802Z,776
2024-04-03T07:49:02.488Z,776
2024-04-03T07:50:46.204Z,776
2024-04-03T07:52:29.902Z,776
2024-04-03T07:54:13.596Z,776
2024-04-03T07:55:57.308Z,776
2024-04-03T07:57:41.002Z,776
2024-04-03T07:59:24.724Z,776
2024-04-03T08:01:08.418Z,775
2024-04-03T08:02:52.126Z,776
2024-04-03T08:04:35.851Z,777
2024-04-03T08:06:19.539Z,776
2024-04-03T08:08:03.236Z,774
2024-04-03T08:09:46.939Z,776
2024-04-03T08:11:30.634Z,777
2024-04-03T08:13:14.326Z,777
2024-04-03T08:14:58.039Z,776
2024-04-03T08:16:41.708Z,777
2024-04-03T08:18:25.429Z,777
2024-04-03T08:20:09.135Z,777
2024-04-03T08:21:52.849Z,776
2024-04-03T08:23:36.522Z,777
2024-04-03T08:25:20.240Z,777
2024-04-03T08:28:47.634Z,777
2024-04-03T08:30:31.477Z,776
2024-04-03T08:32:15.371Z,778
2024-04-03T08:33:58.747Z,777
2024-04-03T08:35:42.743Z,777
2024-04-03T08:37:26.154Z,777
2024-04-03T08:39:10.130Z,777
2024-04-03T08:40:53.891Z,777
2024-04-03T08:42:37.262Z,777
2024-04-03T08:44:21.338Z,775
2024-04-03T08:46:05.070Z,778
2024-04-03T08:47:48.638Z,773
2024-04-03T08:49:32.090Z,778
2024-04-03T08:51:16.134Z,778
2024-04-03T08:52:59.781Z,777
2024-04-03T08:54:43.508Z,778
2024-04-03T08:56:27.262Z,776
2024-04-03T08:58:10.917Z,777
2024-04-03T08:59:54.453Z,777
2024-04-03T09:01:37.967Z,778
2024-04-03T09:03:21.744Z,778
2024-04-03T09:05:05.658Z,777
2024-04-03T09:06:49.421Z,777
2024-04-03T09:08:33.110Z,778
2024-04-03T09:10:16.863Z,778
2024-04-03T09:12:00.234Z,777
2024-04-03T09:13:44.069Z,778
2024-04-03T09:15:28.024Z,778
2024-04-03T09:17:11.663Z,778
2024-04-03T09:18:55.163Z,778
2024-04-03T09:20:39.082Z,778
2024-04-03T09:22:22.772Z,778
2024-04-03T09:24:06.460Z,778
2024-04-03T09:25:50.151Z,778
2024-04-03T09:27:33.899Z,776
2024-04-03T09:29:17.198Z,777
2024-04-03T09:31:01.214Z,778
2024-04-03T09:32:44.705Z,778
2024-04-03T09:34:28.665Z,777
2024-04-03T09:36:12.152Z,778
2024-04-03T09:37:55.724Z,779
2024-04-03T09:39:39.736Z,778
2024-04-03T09:41:23.470Z,778
2024-04-03T09:43:07.165Z,777
2024-04-03T09:44:50.741Z,779
2024-04-03T09:46:34.621Z,778
2024-04-03T09:48:18.228Z,778
2024-04-03T09:50:01.970Z,778
2024-04-03T09:51:45.659Z,778
2024-04-03T09:53:29.365Z,779
2024-04-03T09:55:12.976Z,778
2024-04-03T09:56:56.801Z,779
2024-04-03T09:58:40.133Z,779
2024-04-03T10:00:23.837Z,779
2024-04-03T10:02:07.780Z,779
2024-04-03T10:03:51.372Z,778
2024-04-03T10:05:35.285Z,778
2024-04-03T10:07:18.844Z,779
2024-04-03T10:09:02.697Z,776
2024-04-03T10:10:46.456Z,777
2024-04-03T10:12:29.995Z,779
2024-04-03T10:14:13.780Z,779
2024-04-03T10:15:57.399Z,779
2024-04-03T10:17:41.122Z,778
2024-04-03T10:19:24.774Z,779
2024-04-03T10:21:08.580Z,779
2024-04-03T10:22:51.991Z,778
2024-04-03T10:24:36.001Z,779
2024-04-03T10:26:19.700Z,779
2024-04-03T10:28:03.407Z,779
2024-04-03T10:29:47.069Z,779
2024-04-03T10:31:30.510Z,778
2024-04-03T10:33:14.482Z,779
2024-04-03T10:34:58.155Z,779
2024-04-03T10:36:41.885Z,779
2024-04-03T10:38:25.300Z,779
2024-04-03T10:40:09.011Z,779
2024-04-03T10:41:52.966Z,779
2024-04-03T10:43:36.681Z,779
2024-04-03T10:45:20.197Z,779
2024-04-03T10:47:04.043Z,779
2024-04-03T10:48:47.746Z,779
2024-04-03T10:50:31.525Z,779
2024-04-03T10:52:15.083Z,779
2024-04-03T10:53:58.980Z,780
2024-04-03T10:55:42.393Z,779
2024-04-03T10:57:25.956Z,779
2024-04-03T10:59:09.886Z,778
2024-04-03T11:00:53.678Z,779
2024-04-03T11:02:37.079Z,778
2024-04-03T11:04:21.093Z,778
2024-04-03T11:06:04.583Z,778
2024-04-03T11:07:48.494Z,780
2024-04-03T11:09:32.191Z,779
2024-04-03T11:11:15.570Z,779
2024-04-03T11:12:59.417Z,779
2024-04-03T11:14:43.453Z,778
2024-04-03T11:16:26.779Z,779
2024-04-03T11:18:10.721Z,778
2024-04-03T11:19:54.405Z,778
2024-04-03T11:21:38.035Z,778
2024-04-03T11:23:21.636Z,779
2024-04-03T11:25:05.514Z,778
2024-04-03T11:26:49.095Z,779
2024-04-03T11:28:32.766Z,778
2024-04-03T11:30:16.702Z,778
2024-04-03T11:32:00.445Z,778
2024-04-03T11:33:44.011Z,778
2024-04-03T11:35:27.733Z,778
2024-04-03T11:37:11.582Z,778
2024-04-03T11:40:38.506Z,778
2024-04-03T11:42:22.663Z,778
2024-04-03T11:44:06.289Z,778
2024-04-03T11:45:49.990Z,778
2024-04-03T11:47:33.508Z,778
2024-04-03T11:49:17.035Z,775
2024-04-03T11:51:01.129Z,778
2024-04-03T11:52:44.444Z,778
2024-04-03T11:54:28.530Z,778
2024-04-03T11:56:11.843Z,775
2024-04-03T11:57:55.757Z,778
2024-04-03T11:59:39.642Z,778
2024-04-03T12:01:23.055Z,778
2024-04-03T12:03:06.936Z,776
2024-04-03T12:04:50.818Z,778
2024-04-03T12:06:34.087Z,777
2024-04-03T12:08:17.870Z,777
2024-04-03T12:10:01.863Z,778
2024-04-03T12:11:45.505Z,778
2024-04-03T12:13:29.178Z,776
2024-04-03T12:15:12.853Z,778
2024-04-03T12:16:56.656Z,778
2024-04-03T12:18:40.248Z,778
2024-04-03T12:20:23.897Z,778
2024-04-03T12:22:07.641Z,778
2024-04-03T12:27:18.818Z,777
2024-04-03T12:29:02.476Z,777
2024-04-03T12:30:46.208Z,778
2024-04-03T12:32:29.904Z,778
2024-04-03T12:34:13.609Z,777
2024-04-03T12:35:57.318Z,777
2024-04-03T12:37:40.913Z,777
2024-04-03T12:39:24.683Z,778
2024-04-03T12:41:08.433Z,777
2024-04-03T12:42:52.107Z,778
2024-04-03T12:44:35.876Z,777
2024-04-03T12:46:19.532Z,777
2024-04-03T12:48:03.237Z,777
2024-04-03T12:49:46.826Z,777
2024-04-03T12:51:30.285Z,777
2024-04-03T12:53:14.328Z,777
2024-04-03T12:54:58.030Z,777
2024-04-03T12:56:41.794Z,778
2024-04-03T12:58:25.437Z,778
2024-04-03T13:00:09.110Z,778
2024-04-03T13:01:52.922Z,777
2024-04-03T13:03:36.479Z,777
2024-04-03T13:05:20.251Z,776
2024-04-03T13:07:03.968Z,777
2024-04-03T13:08:47.648Z,777
2024-04-03T13:10:31.342Z,777
2024-04-03T13:12:15.055Z,778
2024-04-03T13:13:58.765Z,777
2024-04-03T13:15:42.540Z,778
2024-04-03T13:17:26.140Z,778
2024-04-03T13:19:09.874Z,777
2024-04-03T13:20:53.540Z,777
2024-04-03T13:22:37.326Z,777
2024-04-03T13:24:20.903Z,776
2024-04-03T13:26:04.733Z,777
2024-04-03T13:27:48.425Z,777
2024-04-03T13:29:32.126Z,777
2024-04-03T13:31:15.734Z,777
2024-04-03T13:32:59.222Z,777
2024-04-03T13:34:42.850Z,777
2024-04-03T13:36:26.560Z,778
2024-04-03T13:38:10.653Z,777
2024-04-03T13:39:54.158Z,777
2024-04-03T13:41:37.777Z,775
2024-04-03T13:43:21.714Z,777
2024-04-03T13:45:05.375Z,777
2024-04-03T13:46:49.125Z,777
2024-04-03T13:48:32.865Z,777
2024-04-03T13:50:16.304Z,777
2024-04-03T13:52:00.223Z,777
2024-04-03T13:53:43.924Z,778
2024-04-03T13:55:27.633Z,777
2024-04-03T13:57:11.347Z,776
2024-04-03T14:00:38.531Z,777
2024-04-03T14:02:22.363Z,777
2024-04-03T14:04:05.793Z,777
2024-04-03T14:05:49.858Z,778
2024-04-03T14:07:33.300Z,777
2024-04-03T14:09:17.271Z,777
2024-04-03T14:11:01.029Z,777
2024-04-03T14:12:44.275Z,777
2024-04-03T14:14:28.341Z,777
2024-04-03T14:16:11.777Z,777
2024-04-03T14:17:55.386Z,777
2024-04-03T14:19:39.476Z,777
2024-04-03T14:21:23.106Z,777
2024-04-03T14:23:06.789Z,776
2024-04-03T14:24:50.473Z,777
2024-04-03T14:26:34.299Z,769
2024-04-03T14:28:17.896Z,777
2024-04-03T14:30:01.314Z,777
2024-04-03T14:31:45.322Z,777
2024-04-03T14:33:28.997Z,777
2024-04-03T14:35:12.760Z,777
2024-04-03T14:36:56.469Z,776
2024-04-03T14:38:40.184Z,777
2024-04-03T14:40:23.510Z,777
2024-04-03T14:42:07.451Z,777
2024-04-03T14:43:51.267Z,778
2024-04-03T14:45:34.945Z,777
2024-04-03T14:47:18.644Z,776
2024-04-03T14:49:02.051Z,777
2024-04-03T14:50:46.147Z,776
2024-04-03T14:52:29.824Z,777
2024-04-03T14:54:13.296Z,777
2024-04-03T14:55:56.858Z,777
2024-04-03T14:57:40.597Z,777
2024-04-03T14:59:24.588Z,777
2024-04-03T15:01:07.940Z,777
2024-04-03T15:02:51.947Z,777
2024-04-03T15:04:35.670Z,777
2024-04-03T15:06:19.352Z,776
2024-04-03T15:08:02.944Z,777
2024-04-03T15:09:46.836Z,777
2024-04-03T15:11:30.581Z,777
2024-04-03T15:13:14.205Z,776
2024-04-03T15:14:57.898Z,777
2024-04-03T15:16:41.698Z,777
2024-04-03T15:18:25.297Z,777
2024-04-03T15:20:09.030Z,774
2024-04-03T15:21:52.720Z,777
2024-04-03T15:23:36.377Z,777
2024-04-03T15:25:20.055Z,777
2024-04-03T15:27:03.847Z,777
2024-04-03T15:28:47.546Z,777
2024-04-03T15:30:31.230Z,777
2024-04-03T15:32:14.974Z,777
2024-04-03T15:33:58.590Z,777
2024-04-03T15:35:42.304Z,777
2024-04-03T15:37:25.786Z,777
2024-04-03T15:39:09.715Z,777
2024-04-03T15:40:53.471Z,777
2024-04-03T15:42:36.778Z,776
2024-04-03T15:44:20.850Z,776
2024-04-03T15:46:04.605Z,776
2024-04-03T15:47:48.300Z,777
2024-04-03T15:49:31.930Z,776
2024-04-03T15:51:15.662Z,777
2024-04-03T15:52:59.300Z,777
2024-04-03T15:54:43.015Z,777
2024-04-03T15:56:26.790Z,776
2024-04-03T15:58:10.112Z,777
2024-04-03T15:59:54.121Z,776
2024-04-03T16:01:37.874Z,777
2024-04-03T16:03:21.635Z,775
2024-04-03T16:05:05.190Z,777
2024-04-03T16:06:48.994Z,776
2024-04-03T16:08:32.714Z,777
2024-04-03T16:10:16.349Z,775
2024-04-03T16:11:59.756Z,776
2024-04-03T16:13:43.809Z,777
2024-04-03T16:15:27.448Z,777
2024-04-03T16:17:11.026Z,776
2024-04-03T16:18:54.913Z,776
2024-04-03T16:20:38.405Z,777
2024-04-03T16:22:22.213Z,777
2024-04-03T16:24:05.985Z,776
2024-04-03T16:25:49.684Z,777
2024-04-03T16:27:33.461Z,777
2024-04-03T16:29:17.144Z,777
2024-04-03T16:31:00.862Z,777
2024-04-03T16:32:44.579Z,777
2024-04-03T16:34:28.245Z,777
2024-04-03T16:36:11.886Z,776
2024-04-03T16:37:55.607Z,777
2024-04-03T16:39:39.237Z,776
2024-04-03T16:41:22.805Z,776
2024-04-03T16:43:06.422Z,777
2024-04-03T16:44:50.532Z,776
2024-04-03T16:46:33.742Z,777
2024-04-03T16:48:17.816Z,776
2024-04-03T16:50:01.156Z,776
2024-04-03T16:51:44.988Z,776
2024-04-03T16:53:28.927Z,776
2024-04-03T16:55:12.563Z,777
2024-04-03T16:56:56.355Z,777
2024-04-03T16:58:39.661Z,776
2024-04-03T17:00:23.640Z,777
2024-04-03T17:02:07.378Z,776
2024-04-03T17:03:51.121Z,776
2024-04-03T17:05:34.827Z,777
2024-04-03T17:07:18.534Z,776
2024-04-03T17:09:01.910Z,776
2024-04-03T17:10:45.802Z,777
2024-04-03T17:12:29.794Z,776
2024-04-03T17:14:13.332Z,774
2024-04-03T17:15:57.054Z,776
2024-04-03T17:17:40.802Z,776
2024-04-03T17:19:24.606Z,776
2024-04-03T17:21:07.793Z,776
2024-04-03T17:22:51.556Z,776
2024-04-03T17:24:35.558Z,777
2024-04-03T17:26:19.246Z,777
2024-04-03T17:28:02.988Z,778
2024-04-03T17:29:46.698Z,776
2024-04-03T17:31:30.271Z,776
2024-04-03T17:33:14.052Z,776
2024-04-03T17:34:57.772Z,777
2024-04-03T17:36:41.157Z,777
2024-04-03T17:38:25.173Z,776
2024-04-03T17:40:08.845Z,776
2024-04-03T17:41:52.218Z,776
2024-04-03T17:43:36.215Z,776
2024-04-03T17:45:20.045Z,777
2024-04-03T17:47:03.600Z,776
2024-04-03T17:48:47.392Z,776
2024-04-03T17:50:31.044Z,776
2024-04-03T17:52:14.489Z,777
2024-04-03T17:53:58.265Z,777
2024-04-03T17:55:42.174Z,59
2024-04-03T17:57:25.791Z,47
2024-04-03T17:59:09.669Z,38
2024-04-03T18:00:53.247Z,32
2024-04-03T18:02:36.982Z,27
2024-04-03T18:04:20.356Z,23
2024-04-03T18:06:04.398Z,18
2024-04-03T18:07:48.111Z,16
2024-04-03T18:09:31.780Z,11
2024-04-03T18:11:15.345Z,9
2024-04-03T18:12:59.289Z,6
2024-04-03T18:14:42.754Z,5
2024-04-03T18:16:26.360Z,3
2024-04-03T18:18:10.253Z,20
2024-04-03T18:19:54.013Z,19
2024-04-03T18:21:37.725Z,18
2024-04-03T18:23:21.142Z,18
2024-04-03T18:25:04.788Z,19
2024-04-03T18:26:48.826Z,18
2024-04-03T18:28:32.478Z,19
2024-04-03T18:30:16.144Z,22
2024-04-03T18:31:59.934Z,22
2024-04-03T18:33:43.638Z,23
2024-04-03T18:35:27.100Z,24
2024-04-03T18:37:11.044Z,17
2024-04-03T18:38:54.772Z,19
2024-04-03T18:40:38.443Z,19
2024-04-03T18:42:22.144Z,18
2024-04-03T18:44:05.623Z,18
2024-04-03T18:45:49.523Z,19
2024-04-03T18:47:33.190Z,18
2024-04-03T18:49:16.905Z,18
2024-04-03T18:51:00.506Z,16
2024-04-03T18:52:44.376Z,17
2024-04-03T18:54:28.061Z,17
2024-04-03T18:56:11.663Z,17
2024-04-03T18:57:55.430Z,18
2024-04-03T18:59:39.150Z,17
2024-04-03T19:01:22.781Z,18
2024-04-03T19:03:06.363Z,18
2024-04-03T19:04:50.262Z,18
2024-04-03T19:06:34.027Z,18
2024-04-03T19:08:17.385Z,18
2024-04-03T19:10:01.374Z,18
2024-04-03T19:11:45.097Z,19
2024-04-03T19:13:28.929Z,19
2024-04-03T19:15:12.147Z,17
2024-04-03T19:16:55.817Z,17
2024-04-03T19:18:39.506Z,17
2024-04-03T19:20:23.256Z,16
2024-04-03T19:22:06.943Z,17
2024-04-03T19:23:50.702Z,18
2024-04-03T19:25:34.274Z,18
2024-04-03T19:27:18.090Z,18
2024-04-03T19:29:01.855Z,18
2024-04-03T19:30:45.437Z,17
2024-04-03T19:32:29.176Z,17
2024-04-03T19:34:12.804Z,17
2024-04-03T19:35:56.597Z,17
2024-04-03T19:37:40.263Z,18
2024-04-03T19:39:23.933Z,18
2024-04-03T19:41:07.687Z,17
2024-04-03T19:42:51.354Z,22
2024-04-03T19:44:35.075Z,22
2024-04-03T19:46:18.768Z,19
2024-04-03T19:48:02.471Z,18
2024-04-03T19:49:46.208Z,19
2024-04-03T19:51:29.691Z,19
2024-04-03T19:53:13.567Z,19
2024-04-03T19:54:57.167Z,18
2024-04-03T19:56:40.908Z,17
2024-04-03T19:58:24.337Z,19
2024-04-03T20:00:08.327Z,18
2024-04-03T20:01:52.160Z,19
2024-04-03T20:03:35.736Z,17
2024-04-03T20:05:19.562Z,18
2024-04-03T20:07:03.183Z,18
2024-04-03T20:08:46.911Z,18
2024-04-03T20:10:30.591Z,18
2024-04-03T20:12:14.055Z,19
2024-04-03T20:13:58.053Z,18
2024-04-03T20:15:41.553Z,18
2024-04-03T20:17:25.380Z,18
2024-04-03T20:19:09.135Z,19
2024-04-03T20:20:52.489Z,18
2024-04-03T20:22:36.495Z,19
2024-04-03T20:24:20.214Z,18
2024-04-03T20:26:03.696Z,18
2024-04-03T20:27:47.690Z,19
2024-04-03T20:29:31.399Z,4
2024-04-03T20:31:15.045Z,4
2024-04-03T20:32:58.772Z,5
2024-04-03T20:34:42.467Z,4
2024-04-03T20:36:26.166Z,4
2024-04-03T20:38:09.823Z,1
2024-04-03T20:39:53.503Z,1
2024-04-03T20:41:37.210Z,0
2024-04-03T20:43:20.597Z,1
2024-04-03T20:45:04.650Z,1
2024-04-03T20:46:48.405Z,1
2024-04-03T20:48:32.062Z,0
2024-04-03T20:50:15.754Z,1
2024-04-03T20:51:59.454Z,0
2024-04-03T20:53:43.143Z,1
2024-04-03T20:55:26.780Z,0
2024-04-03T20:57:10.534Z,0
2024-04-03T20:58:54.321Z,1
2024-04-03T21:00:37.884Z,0
2024-04-03T21:02:21.648Z,1
2024-04-03T21:04:05.335Z,1
2024-04-03T21:05:49.047Z,1
2024-04-03T21:07:32.771Z,1
2024-04-03T21:09:16.134Z,1
2024-04-03T21:11:00.206Z,1
2024-04-03T21:12:43.717Z,1
2024-04-03T21:14:27.240Z,1
2024-04-03T21:16:11.200Z,1
2024-04-03T21:17:54.926Z,1
2024-04-03T21:19:38.481Z,1
2024-04-03T21:21:22.315Z,0
2024-04-03T21:23:06.019Z,1
2024-04-03T21:24:49.419Z,1
2024-04-03T21:26:33.454Z,1
2024-04-03T21:28:17.103Z,1
2024-04-03T21:30:00.578Z,1
2024-04-03T21:31:44.523Z,1
2024-04-03T21:33:28.216Z,0
2024-04-03T21:35:11.981Z,1
2024-04-03T21:36:55.710Z,1
2024-04-03T21:38:39.350Z,1
2024-04-03T21:40:22.942Z,1
2024-04-03T21:42:06.830Z,1
2024-04-03T21:43:50.476Z,1
2024-04-03T21:45:34.142Z,1
2024-04-03T21:47:17.899Z,1
2024-04-03T21:49:01.484Z,1
2024-04-03T21:50:45.143Z,1
2024-04-03T21:52:29.029Z,1
2024-04-03T21:54:12.434Z,0
2024-04-03T21:55:56.294Z,1
2024-04-03T21:57:40.043Z,1
2024-04-03T21:59:23.553Z,1
2024-04-03T22:01:07.427Z,1
2024-04-03T22:02:51.187Z,1
2024-04-03T22:04:34.861Z,78
2024-04-03T22:06:18.552Z,78
2024-04-03T22:08:01.949Z,75
2024-04-03T22:09:46.038Z,80
2024-04-03T22:11:29.676Z,78
2024-04-03T22:13:13.164Z,77
2024-04-03T22:14:57.132Z,77
2024-04-03T22:16:40.628Z,1
2024-04-03T22:18:24.528Z,1
2024-04-03T22:20:08.237Z,1
2024-04-03T22:21:51.951Z,1
2024-04-03T22:23:35.332Z,1
2024-04-03T22:25:19.331Z,1
2024-04-03T22:27:02.829Z,2
2024-04-03T22:28:46.736Z,1
2024-04-03T22:30:30.433Z,1
2024-04-03T22:32:14.079Z,1
2024-04-03T22:33:57.685Z,1
2024-04-03T22:35:41.510Z,1
2024-04-03T22:37:25.179Z,1
2024-04-03T22:39:08.961Z,0
2024-04-03T22:40:52.315Z,1
2024-04-03T22:42:36.324Z,0
2024-04-03T22:44:19.909Z,1
2024-04-03T22:46:03.728Z,1
2024-04-03T22:47:47.476Z,1
2024-04-03T22:49:31.211Z,0
2024-04-03T22:51:14.787Z,0
2024-04-03T22:52:58.384Z,1
2024-04-03T22:54:41.903Z,1
2024-04-03T22:56:25.937Z,0
2024-04-03T22:58:09.643Z,0
2024-04-03T22:59:53.432Z,0
2024-04-03T23:01:36.999Z,0
2024-04-03T23:03:20.733Z,1
2024-04-03T23:05:04.115Z,0
2024-04-03T23:06:48.254Z,1
2024-04-03T23:08:31.908Z,0
2024-04-03T23:10:15.221Z,0
2024-04-03T23:11:59.264Z,0
2024-04-03T23:13:42.650Z,1
2024-04-03T23:15:26.617Z,1
2024-04-03T23:17:10.374Z,2
2024-04-03T23:18:53.763Z,0
2024-04-03T23:20:37.758Z,0
2024-04-03T23:22:21.488Z,1
2024-04-03T23:24:05.272Z,1
2024-04-03T23:25:48.795Z,0
2024-04-03T23:27:32.266Z,0
2024-04-03T23:29:16.280Z,0
2024-04-03T23:30:59.907Z,0
2024-04-03T23:32:43.654Z,0
2024-04-03T23:34:27.400Z,1
2024-04-03T23:36:11.118Z,0
2024-04-03T23:37:54.763Z,1
2024-04-03T23:39:38.135Z,1
2024-04-03T23:41:22.131Z,1
2024-04-03T23:43:05.703Z,1
2024-04-03T23:44:49.601Z,0
2024-04-03T23:46:33.350Z,0
2024-04-03T23:48:16.785Z,1
2024-04-03T23:50:00.768Z,1
2024-04-03T23:51:44.454Z,1
2024-04-03T23:53:28.105Z,1
2024-04-03T23:55:11.849Z,0
2024-04-03T23:56:55.286Z,1
2024-04-03T23:58:38.956Z,1
